sensor_id;sensor_type;location;lat;lon;timestamp;pressure;altitude;pressure_sealevel;temperature;humidity
29985;BME280;17387;42.690;23.328;2022-08-21T00:01:19;47540.91;;;-144.02;100.00
29985;BME280;17387;42.690;23.328;2022-08-21T00:03:45;47502.31;;;-144.02;100.00
29985;BME280;17387;42.690;23.328;2022-08-21T00:06:10;47496.22;;;-144.02;100.00
29985;BME280;17387;42.690;23.328;2022-08-21T00:08:36;47524.66;;;-144.02;100.00
29985;BME280;17387;42.690;23.328;2022-08-21T00:11:03;47522.63;;;-144.02;100.00
29985;BME280;17387;42.690;23.328;2022-08-21T00:13:29;47589.63;;;-144.02;100.00
29985;BME280;17387;42.690;23.328;2022-08-21T00:15:54;47526.69;;;-144.02;100.00
29985;BME280;17387;42.690;23.328;2022-08-21T00:18:20;47522.63;;;-144.02;100.00
29985;BME280;17387;42.690;23.328;2022-08-21T00:20:46;47549.03;;;-144.02;100.00
29985;BME280;17387;42.690;23.328;2022-08-21T00:23:12;47496.22;;;-144.02;100.00
29985;BME280;17387;42.690;23.328;2022-08-21T00:25:40;47490.13;;;-144.02;100.00
29985;BME280;17387;42.690;23.328;2022-08-21T00:28:06;47530.75;;;-144.02;100.00
29985;BME280;17387;42.690;23.328;2022-08-21T00:30:32;47486.06;;;-144.02;100.00
29985;BME280;17387;42.690;23.328;2022-08-21T00:32:58;47475.91;;;-144.02;100.00
29985;BME280;17387;42.690;23.328;2022-08-21T00:35:29;47479.97;;;-144.02;100.00
29985;BME280;17387;42.690;23.328;2022-08-21T00:37:55;47518.56;;;-144.02;100.00
29985;BME280;17387;42.690;23.328;2022-08-21T00:40:32;47559.19;;;-144.02;100.00
29985;BME280;17387;42.690;23.328;2022-08-21T00:42:58;47516.53;;;-144.02;100.00
29985;BME280;17387;42.690;23.328;2022-08-21T00:45:24;47526.69;;;-144.02;100.00
29985;BME280;17387;42.690;23.328;2022-08-21T00:47:51;47532.78;;;-144.02;100.00
29985;BME280;17387;42.690;23.328;2022-08-21T00:50:17;47504.34;;;-144.02;100.00
29985;BME280;17387;42.690;23.328;2022-08-21T00:52:43;47482.00;;;-144.02;100.00
29985;BME280;17387;42.690;23.328;2022-08-21T00:55:11;47547.00;;;-144.02;100.00
29985;BME280;17387;42.690;23.328;2022-08-21T00:57:46;47490.13;;;-144.02;100.00
29985;BME280;17387;42.690;23.328;2022-08-21T01:00:16;47504.34;;;-144.02;100.00
29985;BME280;17387;42.690;23.328;2022-08-21T01:02:43;47514.50;;;-144.02;100.00
29985;BME280;17387;42.690;23.328;2022-08-21T01:05:08;47534.81;;;-144.02;100.00
29985;BME280;17387;42.690;23.328;2022-08-21T01:07:34;47467.78;;;-144.02;100.00
29985;BME280;17387;42.690;23.328;2022-08-21T01:10:00;47512.47;;;-144.02;100.00
29985;BME280;17387;42.690;23.328;2022-08-21T01:12:26;47536.84;;;-144.02;100.00
29985;BME280;17387;42.690;23.328;2022-08-21T01:14:51;47522.63;;;-144.02;100.00
29985;BME280;17387;42.690;23.328;2022-08-21T01:17:19;47502.31;;;-144.02;100.00
29985;BME280;17387;42.690;23.328;2022-08-21T01:19:46;47524.66;;;-144.02;100.00
29985;BME280;17387;42.690;23.328;2022-08-21T01:22:12;47530.75;;;-144.02;100.00
29985;BME280;17387;42.690;23.328;2022-08-21T01:24:38;47498.25;;;-144.02;100.00
29985;BME280;17387;42.690;23.328;2022-08-21T01:27:03;47526.69;;;-144.02;100.00
29985;BME280;17387;42.690;23.328;2022-08-21T01:32:44;47524.66;;;-144.02;100.00
29985;BME280;17387;42.690;23.328;2022-08-21T01:35:12;47522.63;;;-144.02;100.00
29985;BME280;17387;42.690;23.328;2022-08-21T01:37:38;47534.81;;;-144.02;100.00
29985;BME280;17387;42.690;23.328;2022-08-21T01:40:06;47528.72;;;-144.02;100.00
29985;BME280;17387;42.690;23.328;2022-08-21T01:42:32;47469.81;;;-144.02;100.00
29985;BME280;17387;42.690;23.328;2022-08-21T01:44:57;47540.91;;;-144.02;100.00
29985;BME280;17387;42.690;23.328;2022-08-21T01:47:23;47482.00;;;-144.02;100.00
29985;BME280;17387;42.690;23.328;2022-08-21T01:49:48;47538.88;;;-144.02;100.00
29985;BME280;17387;42.690;23.328;2022-08-21T01:52:14;47512.47;;;-144.02;100.00
29985;BME280;17387;42.690;23.328;2022-08-21T01:54:40;47522.63;;;-144.02;100.00
29985;BME280;17387;42.690;23.328;2022-08-21T01:57:06;47536.84;;;-144.02;100.00
29985;BME280;17387;42.690;23.328;2022-08-21T01:59:31;47484.03;;;-144.02;100.00
29985;BME280;17387;42.690;23.328;2022-08-21T02:01:58;47504.34;;;-144.02;100.00
29985;BME280;17387;42.690;23.328;2022-08-21T02:04:23;47496.22;;;-144.02;100.00
29985;BME280;17387;42.690;23.328;2022-08-21T02:06:50;47510.44;;;-144.02;100.00
29985;BME280;17387;42.690;23.328;2022-08-21T02:09:16;47508.41;;;-144.02;100.00
29985;BME280;17387;42.690;23.328;2022-08-21T02:11:42;47512.47;;;-144.02;100.00
29985;BME280;17387;42.690;23.328;2022-08-21T02:14:08;47486.06;;;-144.02;100.00
29985;BME280;17387;42.690;23.328;2022-08-21T02:16:35;47518.56;;;-144.02;100.00
29985;BME280;17387;42.690;23.328;2022-08-21T02:19:01;47551.06;;;-144.02;100.00
29985;BME280;17387;42.690;23.328;2022-08-21T02:21:26;47502.31;;;-144.02;100.00
29985;BME280;17387;42.690;23.328;2022-08-21T02:23:52;47506.38;;;-144.02;100.00
29985;BME280;17387;42.690;23.328;2022-08-21T02:26:17;47506.38;;;-144.02;100.00
29985;BME280;17387;42.690;23.328;2022-08-21T02:28:42;47538.88;;;-144.02;100.00
29985;BME280;17387;42.690;23.328;2022-08-21T02:31:08;47504.34;;;-144.02;100.00
29985;BME280;17387;42.690;23.328;2022-08-21T02:33:34;47544.97;;;-144.02;100.00
29985;BME280;17387;42.690;23.328;2022-08-21T02:36:01;47551.06;;;-144.02;100.00
29985;BME280;17387;42.690;23.328;2022-08-21T02:38:30;47538.88;;;-144.02;100.00
29985;BME280;17387;42.690;23.328;2022-08-21T02:40:56;47542.94;;;-144.02;100.00
29985;BME280;17387;42.690;23.328;2022-08-21T02:43:23;47551.06;;;-144.02;100.00
29985;BME280;17387;42.690;23.328;2022-08-21T02:45:50;47496.22;;;-144.02;100.00
29985;BME280;17387;42.690;23.328;2022-08-21T02:48:20;47530.75;;;-144.02;100.00
29985;BME280;17387;42.690;23.328;2022-08-21T02:50:52;47563.22;;;-144.02;100.00
29985;BME280;17387;42.690;23.328;2022-08-21T02:53:18;47526.69;;;-144.02;100.00
29985;BME280;17387;42.690;23.328;2022-08-21T02:55:46;47547.00;;;-144.02;100.00
29985;BME280;17387;42.690;23.328;2022-08-21T02:58:15;47526.69;;;-144.02;100.00
29985;BME280;17387;42.690;23.328;2022-08-21T03:00:42;47542.94;;;-144.02;100.00
29985;BME280;17387;42.690;23.328;2022-08-21T03:03:09;47524.66;;;-144.02;100.00
29985;BME280;17387;42.690;23.328;2022-08-21T03:05:35;47551.06;;;-144.02;100.00
29985;BME280;17387;42.690;23.328;2022-08-21T03:08:06;47542.94;;;-144.02;100.00
29985;BME280;17387;42.690;23.328;2022-08-21T03:10:34;47530.75;;;-144.02;100.00
29985;BME280;17387;42.690;23.328;2022-08-21T03:13:00;47532.78;;;-144.02;100.00
29985;BME280;17387;42.690;23.328;2022-08-21T03:15:27;47547.00;;;-144.02;100.00
29985;BME280;17387;42.690;23.328;2022-08-21T03:17:53;47538.88;;;-144.02;100.00
29985;BME280;17387;42.690;23.328;2022-08-21T03:20:21;47486.06;;;-144.02;100.00
29985;BME280;17387;42.690;23.328;2022-08-21T03:22:47;47591.66;;;-144.02;100.00
29985;BME280;17387;42.690;23.328;2022-08-21T03:25:13;47526.69;;;-144.02;100.00
29985;BME280;17387;42.690;23.328;2022-08-21T03:27:39;47551.06;;;-144.02;100.00
29985;BME280;17387;42.690;23.328;2022-08-21T03:30:06;47538.88;;;-144.02;100.00
29985;BME280;17387;42.690;23.328;2022-08-21T03:32:32;47549.03;;;-144.02;100.00
29985;BME280;17387;42.690;23.328;2022-08-21T03:34:58;47534.81;;;-144.02;100.00
29985;BME280;17387;42.690;23.328;2022-08-21T03:37:23;47514.50;;;-144.02;100.00
29985;BME280;17387;42.690;23.328;2022-08-21T03:39:50;47524.66;;;-144.02;100.00
29985;BME280;17387;42.690;23.328;2022-08-21T03:42:15;47559.19;;;-144.02;100.00
29985;BME280;17387;42.690;23.328;2022-08-21T03:44:41;47498.25;;;-144.02;100.00
29985;BME280;17387;42.690;23.328;2022-08-21T03:47:07;47549.03;;;-144.02;100.00
29985;BME280;17387;42.690;23.328;2022-08-21T03:49:33;47551.06;;;-144.02;100.00
29985;BME280;17387;42.690;23.328;2022-08-21T03:51:59;47524.66;;;-144.02;100.00
29985;BME280;17387;42.690;23.328;2022-08-21T03:54:25;47532.78;;;-144.02;100.00
29985;BME280;17387;42.690;23.328;2022-08-21T03:56:50;47506.38;;;-144.02;100.00
29985;BME280;17387;42.690;23.328;2022-08-21T03:59:17;47530.75;;;-144.02;100.00
29985;BME280;17387;42.690;23.328;2022-08-21T04:01:57;47512.47;;;-144.02;100.00
29985;BME280;17387;42.690;23.328;2022-08-21T04:04:24;47506.38;;;-144.02;100.00
29985;BME280;17387;42.690;23.328;2022-08-21T04:06:49;47540.91;;;-144.02;100.00
29985;BME280;17387;42.690;23.328;2022-08-21T04:09:16;47498.25;;;-144.02;100.00
29985;BME280;17387;42.690;23.328;2022-08-21T04:11:42;47508.41;;;-144.02;100.00
29985;BME280;17387;42.690;23.328;2022-08-21T04:14:07;47549.03;;;-144.02;100.00
29985;BME280;17387;42.690;23.328;2022-08-21T04:16:33;47542.94;;;-144.02;100.00
29985;BME280;17387;42.690;23.328;2022-08-21T04:18:59;47506.38;;;-144.02;100.00
29985;BME280;17387;42.690;23.328;2022-08-21T04:21:24;47555.13;;;-144.02;100.00
29985;BME280;17387;42.690;23.328;2022-08-21T04:23:49;47571.38;;;-144.02;100.00
29985;BME280;17387;42.690;23.328;2022-08-21T04:26:15;47522.63;;;-144.02;100.00
29985;BME280;17387;42.690;23.328;2022-08-21T04:28:41;47563.22;;;-144.02;100.00
29985;BME280;17387;42.690;23.328;2022-08-21T04:31:08;47508.41;;;-144.02;100.00
29985;BME280;17387;42.690;23.328;2022-08-21T04:33:33;47518.56;;;-144.02;100.00
29985;BME280;17387;42.690;23.328;2022-08-21T04:35:59;47551.06;;;-144.02;100.00
29985;BME280;17387;42.690;23.328;2022-08-21T04:38:24;47648.53;;;-144.02;100.00
29985;BME280;17387;42.690;23.328;2022-08-21T04:40:51;47542.94;;;-144.02;100.00
29985;BME280;17387;42.690;23.328;2022-08-21T04:43:17;47542.94;;;-144.02;100.00
29985;BME280;17387;42.690;23.328;2022-08-21T04:45:46;47540.91;;;-144.02;100.00
29985;BME280;17387;42.690;23.328;2022-08-21T04:48:13;47557.16;;;-144.02;100.00
29985;BME280;17387;42.690;23.328;2022-08-21T04:50:43;47530.75;;;-144.02;100.00
29985;BME280;17387;42.690;23.328;2022-08-21T04:53:16;47542.94;;;-144.02;100.00
29985;BME280;17387;42.690;23.328;2022-08-21T04:55:42;47547.00;;;-144.02;100.00
29985;BME280;17387;42.690;23.328;2022-08-21T04:58:10;47532.78;;;-144.02;100.00
29985;BME280;17387;42.690;23.328;2022-08-21T05:00:36;47520.59;;;-144.02;100.00
29985;BME280;17387;42.690;23.328;2022-08-21T05:03:03;47540.91;;;-144.02;100.00
29985;BME280;17387;42.690;23.328;2022-08-21T05:05:31;47559.19;;;-144.02;100.00
29985;BME280;17387;42.690;23.328;2022-08-21T05:07:59;47498.25;;;-144.02;100.00
29985;BME280;17387;42.690;23.328;2022-08-21T05:10:27;47510.44;;;-144.02;100.00
29985;BME280;17387;42.690;23.328;2022-08-21T05:12:52;47473.88;;;-144.02;100.00
29985;BME280;17387;42.690;23.328;2022-08-21T05:15:18;47538.88;;;-144.02;100.00
29985;BME280;17387;42.690;23.328;2022-08-21T05:17:44;47536.84;;;-144.02;100.00
29985;BME280;17387;42.690;23.328;2022-08-21T05:20:11;47534.81;;;-144.02;100.00
29985;BME280;17387;42.690;23.328;2022-08-21T05:22:37;47538.88;;;-144.02;99.80
29985;BME280;17387;42.690;23.328;2022-08-21T05:25:03;47536.84;;;-144.02;98.41
29985;BME280;17387;42.690;23.328;2022-08-21T05:27:29;47524.66;;;-144.02;96.94
29985;BME280;17387;42.690;23.328;2022-08-21T05:29:56;47549.03;;;-144.02;95.67
29985;BME280;17387;42.690;23.328;2022-08-21T05:32:21;47528.72;;;-144.02;94.44
29985;BME280;17387;42.690;23.328;2022-08-21T05:34:46;47492.16;;;-144.02;93.00
29985;BME280;17387;42.690;23.328;2022-08-21T05:37:12;47508.41;;;-144.02;90.88
29985;BME280;17387;42.690;23.328;2022-08-21T05:39:37;47522.63;;;-144.02;92.59
29985;BME280;17387;42.690;23.328;2022-08-21T05:42:03;47522.63;;;-144.02;92.31
29985;BME280;17387;42.690;23.328;2022-08-21T05:44:28;47526.69;;;-144.02;92.97
29985;BME280;17387;42.690;23.328;2022-08-21T05:46:54;47494.19;;;-144.02;92.13
29985;BME280;17387;42.690;23.328;2022-08-21T05:49:19;47538.88;;;-144.02;89.68
29985;BME280;17387;42.690;23.328;2022-08-21T05:51:45;47506.38;;;-144.02;89.14
29985;BME280;17387;42.690;23.328;2022-08-21T05:54:10;47490.13;;;-144.02;89.24
29985;BME280;17387;42.690;23.328;2022-08-21T05:56:36;47506.38;;;-144.02;85.97
29985;BME280;17387;42.690;23.328;2022-08-21T05:59:02;47439.34;;;-144.02;85.65
29985;BME280;17387;42.690;23.328;2022-08-21T06:01:27;47516.53;;;-144.02;86.58
29985;BME280;17387;42.690;23.328;2022-08-21T06:03:53;47518.56;;;-144.02;85.63
29985;BME280;17387;42.690;23.328;2022-08-21T06:06:19;47534.81;;;-144.02;86.35
29985;BME280;17387;42.690;23.328;2022-08-21T06:08:44;47514.50;;;-144.02;86.91
29985;BME280;17387;42.690;23.328;2022-08-21T06:11:10;47477.94;;;-144.02;87.30
29985;BME280;17387;42.690;23.328;2022-08-21T06:13:37;47526.69;;;-144.02;87.34
29985;BME280;17387;42.690;23.328;2022-08-21T06:18:30;47532.78;;;-144.02;86.09
29985;BME280;17387;42.690;23.328;2022-08-21T06:20:55;47512.47;;;-144.02;85.41
29985;BME280;17387;42.690;23.328;2022-08-21T06:23:21;47514.50;;;-144.02;84.34
29985;BME280;17387;42.690;23.328;2022-08-21T06:25:46;47522.63;;;-144.02;82.73
29985;BME280;17387;42.690;23.328;2022-08-21T06:28:12;47486.06;;;-144.02;82.69
29985;BME280;17387;42.690;23.328;2022-08-21T06:30:38;47490.13;;;-144.02;81.96
29985;BME280;17387;42.690;23.328;2022-08-21T06:33:04;47490.13;;;-144.02;79.70
29985;BME280;17387;42.690;23.328;2022-08-21T06:35:31;47461.69;;;-144.02;80.59
29985;BME280;17387;42.690;23.328;2022-08-21T06:37:57;47447.47;;;-144.02;79.54
29985;BME280;17387;42.690;23.328;2022-08-21T06:40:22;47465.75;;;-144.02;81.41
29985;BME280;17387;42.690;23.328;2022-08-21T06:42:48;47484.03;;;-144.02;80.40
29985;BME280;17387;42.690;23.328;2022-08-21T06:45:14;47475.91;;;-144.02;81.05
29985;BME280;17387;42.690;23.328;2022-08-21T06:47:40;47502.31;;;-144.02;80.66
29985;BME280;17387;42.690;23.328;2022-08-21T06:50:06;47496.22;;;-144.02;80.96
29985;BME280;17387;42.690;23.328;2022-08-21T06:52:36;47473.88;;;-144.02;79.66
29985;BME280;17387;42.690;23.328;2022-08-21T06:55:04;47490.13;;;-144.02;78.26
29985;BME280;17387;42.690;23.328;2022-08-21T06:57:30;47482.00;;;-144.02;77.58
29985;BME280;17387;42.690;23.328;2022-08-21T06:59:55;47538.88;;;-144.02;75.71
29985;BME280;17387;42.690;23.328;2022-08-21T07:02:21;47467.78;;;-144.02;74.44
29985;BME280;17387;42.690;23.328;2022-08-21T07:04:46;47479.97;;;-144.02;73.42
29985;BME280;17387;42.690;23.328;2022-08-21T07:07:12;47453.56;;;-144.02;73.65
29985;BME280;17387;42.690;23.328;2022-08-21T07:09:37;47473.88;;;-144.02;74.11
29985;BME280;17387;42.690;23.328;2022-08-21T07:12:03;47467.78;;;-144.02;74.99
29985;BME280;17387;42.690;23.328;2022-08-21T07:14:28;47508.41;;;-144.02;72.92
29985;BME280;17387;42.690;23.328;2022-08-21T07:16:54;47451.53;;;-144.02;73.71
29985;BME280;17387;42.690;23.328;2022-08-21T07:19:19;47534.81;;;-144.02;74.26
29985;BME280;17387;42.690;23.328;2022-08-21T07:21:45;47475.91;;;-144.02;74.02
29985;BME280;17387;42.690;23.328;2022-08-21T07:24:12;47571.38;;;-144.02;74.62
29985;BME280;17387;42.690;23.328;2022-08-21T07:26:37;47465.75;;;-144.02;76.42
29985;BME280;17387;42.690;23.328;2022-08-21T07:29:03;47492.16;;;-144.02;77.39
29985;BME280;17387;42.690;23.328;2022-08-21T07:31:29;47406.84;;;-144.02;76.54
29985;BME280;17387;42.690;23.328;2022-08-21T07:33:54;47498.25;;;-144.02;76.71
29985;BME280;17387;42.690;23.328;2022-08-21T07:36:20;47467.78;;;-144.02;77.90
29985;BME280;17387;42.690;23.328;2022-08-21T07:38:46;47445.44;;;-144.02;76.33
29985;BME280;17387;42.690;23.328;2022-08-21T07:41:20;47465.75;;;-144.02;75.13
29985;BME280;17387;42.690;23.328;2022-08-21T07:43:46;47496.22;;;-144.02;75.72
29985;BME280;17387;42.690;23.328;2022-08-21T07:46:12;47461.69;;;-144.02;73.97
29985;BME280;17387;42.690;23.328;2022-08-21T07:48:38;47453.56;;;-144.02;73.43
29985;BME280;17387;42.690;23.328;2022-08-21T07:51:10;47461.69;;;-144.02;73.02
29985;BME280;17387;42.690;23.328;2022-08-21T07:53:36;47463.72;;;-144.02;73.04
29985;BME280;17387;42.690;23.328;2022-08-21T07:56:02;47482.00;;;-144.02;74.01
29985;BME280;17387;42.690;23.328;2022-08-21T07:58:29;47463.72;;;-144.02;73.97
29985;BME280;17387;42.690;23.328;2022-08-21T08:00:55;47461.69;;;-144.02;72.43
29985;BME280;17387;42.690;23.328;2022-08-21T08:03:20;47467.78;;;-144.02;71.81
29985;BME280;17387;42.690;23.328;2022-08-21T08:05:46;47465.75;;;-144.02;72.25
29985;BME280;17387;42.690;23.328;2022-08-21T08:08:12;47486.06;;;-144.02;70.50
29985;BME280;17387;42.690;23.328;2022-08-21T08:10:38;47469.81;;;-144.02;70.57
29985;BME280;17387;42.690;23.328;2022-08-21T08:13:03;47510.44;;;-144.02;71.02
29985;BME280;17387;42.690;23.328;2022-08-21T08:15:29;47475.91;;;-144.02;71.93
29985;BME280;17387;42.690;23.328;2022-08-21T08:17:56;47437.31;;;-144.02;73.03
29985;BME280;17387;42.690;23.328;2022-08-21T08:20:23;47437.31;;;-144.02;73.08
29985;BME280;17387;42.690;23.328;2022-08-21T08:22:51;47467.78;;;-144.02;73.34
29985;BME280;17387;42.690;23.328;2022-08-21T08:25:19;47457.63;;;-144.02;73.44
29985;BME280;17387;42.690;23.328;2022-08-21T08:27:44;47488.09;;;-144.02;72.56
29985;BME280;17387;42.690;23.328;2022-08-21T08:30:12;47498.25;;;-144.02;71.03
29985;BME280;17387;42.690;23.328;2022-08-21T08:32:38;47609.94;;;-144.02;69.57
29985;BME280;17387;42.690;23.328;2022-08-21T08:35:04;47528.72;;;-144.02;68.33
29985;BME280;17387;42.690;23.328;2022-08-21T08:37:30;47486.06;;;-144.02;67.86
29985;BME280;17387;42.690;23.328;2022-08-21T08:39:56;47445.44;;;-144.02;68.13
29985;BME280;17387;42.690;23.328;2022-08-21T08:42:30;47437.31;;;-144.02;67.78
29985;BME280;17387;42.690;23.328;2022-08-21T08:45:18;47453.56;;;-144.02;67.44
29985;BME280;17387;42.690;23.328;2022-08-21T08:47:49;47437.31;;;-144.02;65.75
29985;BME280;17387;42.690;23.328;2022-08-21T08:50:28;47477.94;;;-144.02;64.18
29985;BME280;17387;42.690;23.328;2022-08-21T08:53:02;47447.47;;;-144.02;65.14
29985;BME280;17387;42.690;23.328;2022-08-21T08:55:37;47455.59;;;-144.02;64.02
29985;BME280;17387;42.690;23.328;2022-08-21T08:58:03;47449.50;;;-144.02;61.95
29985;BME280;17387;42.690;23.328;2022-08-21T09:00:30;47421.06;;;-144.02;61.89
29985;BME280;17387;42.690;23.328;2022-08-21T09:02:59;47423.09;;;-144.02;62.42
29985;BME280;17387;42.690;23.328;2022-08-21T09:05:26;47400.75;;;-144.02;63.02
29985;BME280;17387;42.690;23.328;2022-08-21T09:10:23;47445.44;;;-144.02;61.84
29985;BME280;17387;42.690;23.328;2022-08-21T09:21:01;47388.56;;;-144.02;62.86
29985;BME280;17387;42.690;23.328;2022-08-21T09:26:23;47404.81;;;-144.02;61.91
29985;BME280;17387;42.690;23.328;2022-08-21T09:28:54;47433.25;;;-144.02;61.39
29985;BME280;17387;42.690;23.328;2022-08-21T09:31:30;47408.88;;;-144.02;60.55
29985;BME280;17387;42.690;23.328;2022-08-21T09:34:00;47400.75;;;-144.02;60.02
29985;BME280;17387;42.690;23.328;2022-08-21T09:36:34;47384.50;;;-144.02;59.36
29985;BME280;17387;42.690;23.328;2022-08-21T09:39:01;47425.13;;;-144.02;58.49
29985;BME280;17387;42.690;23.328;2022-08-21T09:41:29;47425.13;;;-144.02;60.04
29985;BME280;17387;42.690;23.328;2022-08-21T09:43:56;47437.31;;;-144.02;59.66
29985;BME280;17387;42.690;23.328;2022-08-21T09:46:24;47453.56;;;-144.02;60.05
29985;BME280;17387;42.690;23.328;2022-08-21T09:48:55;47441.38;;;-144.02;60.79
29985;BME280;17387;42.690;23.328;2022-08-21T09:51:24;47431.22;;;-144.02;60.09
29985;BME280;17387;42.690;23.328;2022-08-21T09:53:58;47417.00;;;-144.02;61.15
29985;BME280;17387;42.690;23.328;2022-08-21T09:56:29;47425.13;;;-144.02;59.80
29985;BME280;17387;42.690;23.328;2022-08-21T09:59:35;47445.44;;;-144.02;61.46
29985;BME280;17387;42.690;23.328;2022-08-21T10:04:54;47423.09;;;-144.02;60.47
29985;BME280;17387;42.690;23.328;2022-08-21T10:07:21;47437.31;;;-144.02;60.39
29985;BME280;17387;42.690;23.328;2022-08-21T10:10:05;47408.88;;;-144.02;60.36
29985;BME280;17387;42.690;23.328;2022-08-21T10:12:48;47451.53;;;-144.02;60.55
29985;BME280;17387;42.690;23.328;2022-08-21T10:15:47;47410.91;;;-144.02;59.68
29985;BME280;17387;42.690;23.328;2022-08-21T10:18:37;47412.94;;;-144.02;59.97
29985;BME280;17387;42.690;23.328;2022-08-21T10:21:07;47410.91;;;-144.02;60.12
29985;BME280;17387;42.690;23.328;2022-08-21T10:36:43;47390.59;;;-144.02;59.09
29985;BME280;17387;42.690;23.328;2022-08-21T10:39:29;47429.19;;;-144.02;58.33
29985;BME280;17387;42.690;23.328;2022-08-21T10:42:23;47457.63;;;-144.02;57.28
29985;BME280;17387;42.690;23.328;2022-08-21T10:48:02;47384.50;;;-144.02;57.23
29985;BME280;17387;42.690;23.328;2022-08-21T10:53:19;47392.63;;;-144.02;57.57
29985;BME280;17387;42.690;23.328;2022-08-21T10:56:02;47425.13;;;-144.02;58.53
29985;BME280;17387;42.690;23.328;2022-08-21T10:58:50;47400.75;;;-144.02;59.73
29985;BME280;17387;42.690;23.328;2022-08-21T11:01:26;47380.44;;;-144.02;58.73
29985;BME280;17387;42.690;23.328;2022-08-21T11:04:07;47479.97;;;-144.02;58.09
29985;BME280;17387;42.690;23.328;2022-08-21T11:06:37;47419.03;;;-144.02;57.23
29985;BME280;17387;42.690;23.328;2022-08-21T11:09:13;47392.63;;;-144.02;58.97
29985;BME280;17387;42.690;23.328;2022-08-21T11:11:56;47398.72;;;-144.02;59.21
29985;BME280;17387;42.690;23.328;2022-08-21T11:14:47;47368.25;;;-144.02;59.04
29985;BME280;17387;42.690;23.328;2022-08-21T11:17:16;47419.03;;;-144.02;58.44
29985;BME280;17387;42.690;23.328;2022-08-21T11:19:54;47433.25;;;-144.02;58.86
29985;BME280;17387;42.690;23.328;2022-08-21T11:22:47;47408.88;;;-144.02;58.62
29985;BME280;17387;42.690;23.328;2022-08-21T11:25:23;47421.06;;;-144.02;57.11
29985;BME280;17387;42.690;23.328;2022-08-21T11:27:59;47406.84;;;-144.02;57.62
29985;BME280;17387;42.690;23.328;2022-08-21T11:30:35;47425.13;;;-144.02;56.92
29985;BME280;17387;42.690;23.328;2022-08-21T11:33:14;47425.13;;;-144.02;55.74
29985;BME280;17387;42.690;23.328;2022-08-21T11:36:05;47347.94;;;-144.02;56.74
29985;BME280;17387;42.690;23.328;2022-08-21T11:43:39;47408.88;;;-144.02;53.86
29985;BME280;17387;42.690;23.328;2022-08-21T11:51:33;47553.09;;;-144.02;54.21
29985;BME280;17387;42.690;23.328;2022-08-21T11:56:38;47412.94;;;-144.02;54.02
29985;BME280;17387;42.690;23.328;2022-08-21T11:59:43;47400.75;;;-144.02;55.67
29985;BME280;17387;42.690;23.328;2022-08-21T12:02:01;47427.16;;;-144.02;55.57
29985;BME280;17387;42.690;23.328;2022-08-21T12:06:52;47408.88;;;-144.02;53.76
29985;BME280;17387;42.690;23.328;2022-08-21T12:14:45;47388.56;;;-144.02;53.99
29985;BME280;17387;42.690;23.328;2022-08-21T12:17:38;47406.84;;;-144.02;52.12
29985;BME280;17387;42.690;23.328;2022-08-21T12:22:49;47349.97;;;-144.02;52.63
29985;BME280;17387;42.690;23.328;2022-08-21T12:25:18;47414.97;;;-144.02;52.14
29985;BME280;17387;42.690;23.328;2022-08-21T12:27:51;47380.44;;;-144.02;52.52
29985;BME280;17387;42.690;23.328;2022-08-21T12:33:02;47400.75;;;-144.02;52.16
29985;BME280;17387;42.690;23.328;2022-08-21T12:35:39;47396.69;;;-144.02;52.98
29985;BME280;17387;42.690;23.328;2022-08-21T12:40:47;47591.66;;;-144.02;53.05
29985;BME280;17387;42.690;23.328;2022-08-21T12:43:20;47404.81;;;-144.02;52.48
29985;BME280;17387;42.690;23.328;2022-08-21T12:45:48;47354.03;;;-144.02;52.63
29985;BME280;17387;42.690;23.328;2022-08-21T12:48:25;47518.56;;;-144.02;53.46
29985;BME280;17387;42.690;23.328;2022-08-21T12:50:58;47423.09;;;-144.02;51.92
29985;BME280;17387;42.690;23.328;2022-08-21T12:53:35;47392.63;;;-144.02;53.24
29985;BME280;17387;42.690;23.328;2022-08-21T12:56:09;47425.13;;;-144.02;54.40
29985;BME280;17387;42.690;23.328;2022-08-21T12:58:35;47366.22;;;-144.02;55.14
29985;BME280;17387;42.690;23.328;2022-08-21T13:01:07;47408.88;;;-144.02;55.66
29985;BME280;17387;42.690;23.328;2022-08-21T13:03:38;47423.09;;;-144.02;54.97
29985;BME280;17387;42.690;23.328;2022-08-21T13:06:05;47565.28;;;-144.02;55.39
29985;BME280;17387;42.690;23.328;2022-08-21T13:08:33;47419.03;;;-144.02;55.09
29985;BME280;17387;42.690;23.328;2022-08-21T13:11:04;47390.59;;;-144.02;54.65
29985;BME280;17387;42.690;23.328;2022-08-21T13:13:30;47388.56;;;-144.02;55.35
29985;BME280;17387;42.690;23.328;2022-08-21T13:16:02;47417.00;;;-144.02;54.79
29985;BME280;17387;42.690;23.328;2022-08-21T13:18:30;47390.59;;;-144.02;54.97
29985;BME280;17387;42.690;23.328;2022-08-21T13:21:13;47419.03;;;-144.02;55.19
29985;BME280;17387;42.690;23.328;2022-08-21T13:23:40;47447.47;;;-144.02;55.52
29985;BME280;17387;42.690;23.328;2022-08-21T13:26:32;47388.56;;;-144.02;56.88
29985;BME280;17387;42.690;23.328;2022-08-21T13:29:06;47398.72;;;-144.02;56.23
29985;BME280;17387;42.690;23.328;2022-08-21T13:31:32;47382.47;;;-144.02;56.50
29985;BME280;17387;42.690;23.328;2022-08-21T13:33:58;47402.78;;;-144.02;55.26
29985;BME280;17387;42.690;23.328;2022-08-21T13:36:27;47433.25;;;-144.02;55.47
29985;BME280;17387;42.690;23.328;2022-08-21T13:38:54;47433.25;;;-144.02;56.47
29985;BME280;17387;42.690;23.328;2022-08-21T13:41:24;47404.81;;;-144.02;56.22
29985;BME280;17387;42.690;23.328;2022-08-21T13:44:13;47408.88;;;-144.02;57.17